Huvudsida
METAR-TAF:

METAR-TAF

Flygplatser :

Grand Turk, Turks- och Caicosöarna

latitud: 21-26-40N, longitud: 071-08-32W, höjd: 4 m

METAR: saknas

Tid: 11:35 (15:35 UTC)

Väderprognos

Denna rapport gjordes för 4 timmar och 35 minuter sedan, klockan 11:00 UTC
Prognos gäller från 20 kl. 12 UTC till 21 kl. 12 UTC
Vind 12 kt från ost/nordost
Sikt 10 km eller mer
Spridda moln på en höjd av 2000 ft

TAF: MBGT 201100Z 2012/2112 07012KT 9999 SCT020

Aktuella väderrapporter och prognoser från 4000 flygplatser (METAR- och TAF-rapporter).

De tillgängliga stationerna syns som gula och röda prickar på kartan.

För musen över prickarna för att se namnen på stationerna.

Klicka sedan för att få väderrapporter och prognoser.

För att ändra kartan: Klicka på de gröna knapparna med ett svart kors på för att zooma in; den gröna knappen med ett streck på för att zooma ut; eller på de gröna pilarna för angränsande kartor.


METAR-TAF: